Terminal Aerodrome Forecast
Issued by NWS

Home | Current Version | Previous Version | Text Only | Print | Product List | Glossary On
Versions: 1 2 3 4 5 6 7 8 9 10 11 12
000
FTUS45 KVEF 311100
TAFBIH
TAF
KBIH 311136Z 3112/0112 16009KT P6SM FEW200
     FM311900 17020G30KT P6SM SCT150 SCT200
     FM010200 16014G22KT P6SM SCT100 BKN150
     FM010800 16008KT P6SM SCT080 BKN100
      TEMPO 0108/0112 P6SM -RA SCT060 OVC100=

USA.gov is the U.S. government's official web portal to all federal, state and local government web resources and services.